sensor_id;sensor_type;location;lat;lon;timestamp;pressure;altitude;pressure_sealevel;temperature;humidity
68669;BME280;55652;49.454;7.798;2022-10-14T04:55:07;98542.06;;;19.78;57.03
68669;BME280;55652;49.454;7.798;2022-10-14T04:57:33;98538.97;;;19.87;57.86
68669;BME280;55652;49.454;7.798;2022-10-14T04:59:58;98537.50;;;19.96;57.85
68669;BME280;55652;49.454;7.798;2022-10-14T05:02:23;98526.25;;;20.04;57.87
68669;BME280;55652;49.454;7.798;2022-10-14T05:04:49;98527.50;;;20.13;58.01
68669;BME280;55652;49.454;7.798;2022-10-14T05:07:14;98527.66;;;20.23;57.98
68669;BME280;55652;49.454;7.798;2022-10-14T05:09:39;98523.22;;;20.34;57.79
68669;BME280;55652;49.454;7.798;2022-10-14T05:12:05;98524.19;;;20.45;57.46
68669;BME280;55652;49.454;7.798;2022-10-14T05:14:30;98518.94;;;20.55;57.26
68669;BME280;55652;49.454;7.798;2022-10-14T05:16:55;98511.22;;;20.64;57.06
68669;BME280;55652;49.454;7.798;2022-10-14T05:19:21;98513.81;;;20.76;56.58
68669;BME280;55652;49.454;7.798;2022-10-14T05:21:46;98526.47;;;20.87;56.17
68669;BME280;55652;49.454;7.798;2022-10-14T05:24:11;98524.47;;;20.99;55.94
68669;BME280;55652;49.454;7.798;2022-10-14T05:26:37;98512.06;;;21.08;55.43
68669;BME280;55652;49.454;7.798;2022-10-14T05:29:02;98512.19;;;21.19;55.20
68669;BME280;55652;49.454;7.798;2022-10-14T05:31:29;98519.41;;;21.30;54.85
68669;BME280;55652;49.454;7.798;2022-10-14T05:33:54;98517.09;;;21.39;54.65
68669;BME280;55652;49.454;7.798;2022-10-14T05:36:20;98532.69;;;21.48;54.26
68669;BME280;55652;49.454;7.798;2022-10-14T05:38:45;98524.09;;;21.57;54.02
68669;BME280;55652;49.454;7.798;2022-10-14T05:41:10;98524.47;;;21.65;53.76
68669;BME280;55652;49.454;7.798;2022-10-14T05:43:36;98528.63;;;21.73;53.43
68669;BME280;55652;49.454;7.798;2022-10-14T05:46:01;98527.09;;;21.82;53.24
68669;BME280;55652;49.454;7.798;2022-10-14T05:48:27;98527.94;;;21.88;52.87
68669;BME280;55652;49.454;7.798;2022-10-14T05:50:52;98525.03;;;21.94;52.74
68669;BME280;55652;49.454;7.798;2022-10-14T05:53:18;98520.19;;;22.02;52.45
68669;BME280;55652;49.454;7.798;2022-10-14T05:55:44;98526.25;;;22.09;52.25
68669;BME280;55652;49.454;7.798;2022-10-14T05:58:09;98523.31;;;22.15;52.06
68669;BME280;55652;49.454;7.798;2022-10-14T06:00:34;98524.75;;;22.23;52.19
68669;BME280;55652;49.454;7.798;2022-10-14T06:03:00;98517.72;;;22.27;52.00
68669;BME280;55652;49.454;7.798;2022-10-14T06:05:25;98512.31;;;22.32;51.73
68669;BME280;55652;49.454;7.798;2022-10-14T06:07:50;98512.59;;;22.36;51.64
68669;BME280;55652;49.454;7.798;2022-10-14T06:10:17;98510.72;;;22.41;51.52
68669;BME280;55652;49.454;7.798;2022-10-14T06:12:42;98512.69;;;22.46;51.35
68669;BME280;55652;49.454;7.798;2022-10-14T06:15:08;98511.91;;;22.51;51.07
68669;BME280;55652;49.454;7.798;2022-10-14T06:17:33;98496.66;;;22.55;51.03
68669;BME280;55652;49.454;7.798;2022-10-14T06:19:59;98503.25;;;22.59;50.91
68669;BME280;55652;49.454;7.798;2022-10-14T06:22:24;98499.72;;;22.63;50.86
68669;BME280;55652;49.454;7.798;2022-10-14T06:24:49;98498.94;;;22.68;50.61
68669;BME280;55652;49.454;7.798;2022-10-14T06:27:15;98490.22;;;22.71;50.47
68669;BME280;55652;49.454;7.798;2022-10-14T06:29:40;98496.22;;;22.73;50.41
68669;BME280;55652;49.454;7.798;2022-10-14T06:32:07;98493.25;;;22.75;50.44
68669;BME280;55652;49.454;7.798;2022-10-14T06:34:33;98494.09;;;22.80;50.95
68669;BME280;55652;49.454;7.798;2022-10-14T06:37:00;98501.19;;;22.81;50.83
68669;BME280;55652;49.454;7.798;2022-10-14T06:39:26;98495.19;;;22.84;50.84
68669;BME280;55652;49.454;7.798;2022-10-14T06:41:52;98505.31;;;22.89;50.90
68669;BME280;55652;49.454;7.798;2022-10-14T06:44:18;98497.94;;;22.90;50.79
68669;BME280;55652;49.454;7.798;2022-10-14T06:46:43;98503.97;;;22.92;50.81
68669;BME280;55652;49.454;7.798;2022-10-14T06:49:08;98501.25;;;22.92;50.78
68669;BME280;55652;49.454;7.798;2022-10-14T06:51:34;98497.44;;;22.93;50.66
68669;BME280;55652;49.454;7.798;2022-10-14T06:54:00;98502.38;;;22.96;50.69
68669;BME280;55652;49.454;7.798;2022-10-14T06:56:25;98502.38;;;22.96;50.46
68669;BME280;55652;49.454;7.798;2022-10-14T06:58:54;98499.38;;;22.97;50.37
68669;BME280;55652;49.454;7.798;2022-10-14T07:01:20;98498.03;;;23.00;50.35
68669;BME280;55652;49.454;7.798;2022-10-14T07:03:46;98494.25;;;23.01;50.37
68669;BME280;55652;49.454;7.798;2022-10-14T07:06:11;98484.97;;;23.02;50.21
68669;BME280;55652;49.454;7.798;2022-10-14T07:08:37;98496.44;;;23.04;50.13
68669;BME280;55652;49.454;7.798;2022-10-14T07:11:03;98492.34;;;23.06;50.07
68669;BME280;55652;49.454;7.798;2022-10-14T07:13:28;98485.00;;;23.07;50.04
68669;BME280;55652;49.454;7.798;2022-10-14T07:15:54;98483.91;;;23.08;49.86
68669;BME280;55652;49.454;7.798;2022-10-14T07:18:19;98491.00;;;23.09;49.87
68669;BME280;55652;49.454;7.798;2022-10-14T07:20:45;98475.47;;;23.10;49.83
68669;BME280;55652;49.454;7.798;2022-10-14T07:23:10;98476.84;;;23.12;50.02
68669;BME280;55652;49.454;7.798;2022-10-14T07:25:36;98485.00;;;23.12;50.03
68669;BME280;55652;49.454;7.798;2022-10-14T07:28:02;98489.66;;;23.12;50.32
68669;BME280;55652;49.454;7.798;2022-10-14T07:30:28;98493.44;;;23.11;50.19
68669;BME280;55652;49.454;7.798;2022-10-14T07:32:53;98493.72;;;23.09;50.20
68669;BME280;55652;49.454;7.798;2022-10-14T07:35:19;98490.44;;;23.07;50.14
68669;BME280;55652;49.454;7.798;2022-10-14T07:37:45;98490.44;;;23.07;50.35
68669;BME280;55652;49.454;7.798;2022-10-14T11:24:54;98351.19;;;20.18;57.81
68669;BME280;55652;49.454;7.798;2022-10-14T11:27:42;98340.16;;;20.25;57.78
68669;BME280;55652;49.454;7.798;2022-10-14T11:36:09;98336.69;;;20.52;57.88
68669;BME280;55652;49.454;7.798;2022-10-14T11:44:39;98340.75;;;20.93;58.59
68669;BME280;55652;49.454;7.798;2022-10-14T11:52:27;98326.69;;;21.28;57.38
68669;BME280;55652;49.454;7.798;2022-10-14T11:55:03;98327.09;;;21.42;57.00
68669;BME280;55652;49.454;7.798;2022-10-14T11:57:39;98328.81;;;21.53;56.45
68669;BME280;55652;49.454;7.798;2022-10-14T12:00:25;98320.47;;;21.65;56.06
68669;BME280;55652;49.454;7.798;2022-10-14T12:08:41;98319.25;;;21.88;55.17
68669;BME280;55652;49.454;7.798;2022-10-14T12:16:45;98307.97;;;22.12;54.22
68669;BME280;55652;49.454;7.798;2022-10-14T12:19:20;98306.69;;;22.19;54.11
68669;BME280;55652;49.454;7.798;2022-10-14T12:24:31;98307.81;;;22.34;53.55
68669;BME280;55652;49.454;7.798;2022-10-14T12:27:03;98312.47;;;22.38;53.38
68669;BME280;55652;49.454;7.798;2022-10-14T12:29:43;98306.81;;;22.45;53.02
68669;BME280;55652;49.454;7.798;2022-10-14T12:34:42;98308.47;;;22.56;52.74
68669;BME280;55652;49.454;7.798;2022-10-14T12:39:47;98306.03;;;22.65;52.06
68669;BME280;55652;49.454;7.798;2022-10-14T12:42:14;98309.88;;;22.69;51.83
68669;BME280;55652;49.454;7.798;2022-10-14T12:44:59;98305.25;;;22.75;51.61
68669;BME280;55652;49.454;7.798;2022-10-14T12:47:34;98305.53;;;22.78;51.58
68669;BME280;55652;49.454;7.798;2022-10-14T12:50:37;98307.72;;;22.81;51.38
68669;BME280;55652;49.454;7.798;2022-10-14T12:53:28;98306.38;;;22.84;51.20
68669;BME280;55652;49.454;7.798;2022-10-14T12:56:00;98306.66;;;22.88;51.03
68669;BME280;55652;49.454;7.798;2022-10-14T13:01:16;98301.22;;;22.93;50.75
68669;BME280;55652;49.454;7.798;2022-10-14T13:03:52;98290.34;;;22.98;50.71
68669;BME280;55652;49.454;7.798;2022-10-14T13:11:36;98285.19;;;23.12;51.44
68669;BME280;55652;49.454;7.798;2022-10-14T13:24:31;98274.56;;;23.30;51.39
68669;BME280;55652;49.454;7.798;2022-10-14T13:37:37;98259.28;;;23.50;51.79
68669;BME280;55652;49.454;7.798;2022-10-14T13:40:25;98245.88;;;23.53;51.48
68669;BME280;55652;49.454;7.798;2022-10-14T13:43:01;98225.44;;;23.56;51.43
68669;BME280;55652;49.454;7.798;2022-10-14T13:45:40;98236.88;;;23.58;51.58
68669;BME280;55652;49.454;7.798;2022-10-14T13:48:16;98230.34;;;23.59;51.63
68669;BME280;55652;49.454;7.798;2022-10-14T13:50:43;98234.72;;;23.60;51.88
68669;BME280;55652;49.454;7.798;2022-10-14T13:53:16;98244.25;;;23.63;51.83
68669;BME280;55652;49.454;7.798;2022-10-14T13:55:44;98242.88;;;23.65;51.66
68669;BME280;55652;49.454;7.798;2022-10-14T13:58:19;98230.34;;;23.64;51.70
68669;BME280;55652;49.454;7.798;2022-10-14T14:05:56;98231.97;;;23.65;51.33
68669;BME280;55652;49.454;7.798;2022-10-14T14:08:28;98235.25;;;23.67;51.67
68669;BME280;55652;49.454;7.798;2022-10-14T14:10:58;98235.25;;;23.67;51.52
68669;BME280;55652;49.454;7.798;2022-10-14T14:13:26;98233.03;;;23.69;51.39
68669;BME280;55652;49.454;7.798;2022-10-14T14:15:54;98240.72;;;23.67;51.13
68669;BME280;55652;49.454;7.798;2022-10-14T14:18:37;98236.31;;;23.66;51.20
68669;BME280;55652;49.454;7.798;2022-10-14T14:21:11;98232.22;;;23.69;50.80
68669;BME280;55652;49.454;7.798;2022-10-14T14:23:51;98242.06;;;23.70;50.85
68669;BME280;55652;49.454;7.798;2022-10-14T14:26:18;98238.50;;;23.69;50.68
68669;BME280;55652;49.454;7.798;2022-10-14T14:28:48;98233.03;;;23.69;50.69
68669;BME280;55652;49.454;7.798;2022-10-14T14:31:16;98227.56;;;23.69;50.67
68669;BME280;55652;49.454;7.798;2022-10-14T14:33:44;98216.66;;;23.69;50.66
68669;BME280;55652;49.454;7.798;2022-10-14T14:36:14;98212.88;;;23.70;50.74
68669;BME280;55652;49.454;7.798;2022-10-14T14:38:58;98212.88;;;23.70;50.42
68669;BME280;55652;49.454;7.798;2022-10-14T14:41:29;98207.66;;;23.69;50.47
68669;BME280;55652;49.454;7.798;2022-10-14T14:44:00;98200.28;;;23.69;50.28
68669;BME280;55652;49.454;7.798;2022-10-14T14:46:34;98200.28;;;23.69;50.24
68669;BME280;55652;49.454;7.798;2022-10-14T14:49:02;98198.41;;;23.70;50.30
68669;BME280;55652;49.454;7.798;2022-10-14T14:51:35;98187.75;;;23.68;50.05
68669;BME280;55652;49.454;7.798;2022-10-14T14:54:03;98188.31;;;23.70;50.08
68669;BME280;55652;49.454;7.798;2022-10-14T14:56:39;98194.03;;;23.69;49.90
68669;BME280;55652;49.454;7.798;2022-10-14T15:01:42;98197.56;;;23.69;49.89
68669;BME280;55652;49.454;7.798;2022-10-14T15:04:20;98192.41;;;23.68;49.88
68669;BME280;55652;49.454;7.798;2022-10-14T15:07:11;98177.66;;;23.69;49.73
68669;BME280;55652;49.454;7.798;2022-10-14T15:12:16;98179.03;;;23.66;50.66
68669;BME280;55652;49.454;7.798;2022-10-14T15:17:34;98181.78;;;23.71;51.18
68669;BME280;55652;49.454;7.798;2022-10-14T15:20:25;98188.88;;;23.72;51.18
68669;BME280;55652;49.454;7.798;2022-10-14T15:22:52;98186.16;;;23.72;50.99
68669;BME280;55652;49.454;7.798;2022-10-14T15:25:22;98180.13;;;23.70;50.92
68669;BME280;55652;49.454;7.798;2022-10-14T15:33:13;98159.38;;;23.69;51.42
68669;BME280;55652;49.454;7.798;2022-10-14T15:35:40;98155.03;;;23.68;52.03
68669;BME280;55652;49.454;7.798;2022-10-14T15:38:15;98158.28;;;23.70;52.69
68669;BME280;55652;49.454;7.798;2022-10-14T15:40:42;98155.03;;;23.68;53.67
68669;BME280;55652;49.454;7.798;2022-10-14T15:43:16;98159.66;;;23.68;53.52
68669;BME280;55652;49.454;7.798;2022-10-14T15:45:43;98152.28;;;23.68;53.66
68669;BME280;55652;49.454;7.798;2022-10-14T15:48:18;98148.75;;;23.68;53.99
68669;BME280;55652;49.454;7.798;2022-10-14T15:50:45;98158.84;;;23.67;54.10
68669;BME280;55652;49.454;7.798;2022-10-14T15:53:12;98163.47;;;23.67;54.21
68669;BME280;55652;49.454;7.798;2022-10-14T15:55:38;98159.13;;;23.66;54.30
68669;BME280;55652;49.454;7.798;2022-10-14T15:58:03;98170.03;;;23.66;54.36
68669;BME280;55652;49.454;7.798;2022-10-14T16:00:29;98157.50;;;23.65;54.38
68669;BME280;55652;49.454;7.798;2022-10-14T16:02:56;98162.94;;;23.65;54.59
68669;BME280;55652;49.454;7.798;2022-10-14T16:05:26;98158.88;;;23.62;54.67
68669;BME280;55652;49.454;7.798;2022-10-14T16:07:53;98161.59;;;23.62;54.78
68669;BME280;55652;49.454;7.798;2022-10-14T16:10:21;98154.50;;;23.61;54.86
68669;BME280;55652;49.454;7.798;2022-10-14T16:12:47;98149.03;;;23.61;54.57
68669;BME280;55652;49.454;7.798;2022-10-14T16:15:47;98141.94;;;23.60;54.28
68669;BME280;55652;49.454;7.798;2022-10-14T16:18:13;98144.41;;;23.62;54.08
68669;BME280;55652;49.454;7.798;2022-10-14T16:20:38;98137.59;;;23.59;53.86
68669;BME280;55652;49.454;7.798;2022-10-14T16:23:04;98134.88;;;23.59;53.78
68669;BME280;55652;49.454;7.798;2022-10-14T16:25:34;98129.41;;;23.59;53.44
68669;BME280;55652;49.454;7.798;2022-10-14T16:28:03;98135.94;;;23.58;53.41
68669;BME280;55652;49.454;7.798;2022-10-14T16:30:31;98138.69;;;23.58;53.35
68669;BME280;55652;49.454;7.798;2022-10-14T16:32:56;98148.22;;;23.61;53.15
68669;BME280;55652;49.454;7.798;2022-10-14T16:35:22;98132.97;;;23.60;52.98
68669;BME280;55652;49.454;7.798;2022-10-14T16:37:47;98133.22;;;23.58;52.84
68669;BME280;55652;49.454;7.798;2022-10-14T16:40:13;98129.41;;;23.59;53.17
68669;BME280;55652;49.454;7.798;2022-10-14T16:42:39;98122.59;;;23.62;53.60
68669;BME280;55652;49.454;7.798;2022-10-14T16:45:04;98122.28;;;23.63;54.31
68669;BME280;55652;49.454;7.798;2022-10-14T16:47:30;98123.41;;;23.62;54.64
68669;BME280;55652;49.454;7.798;2022-10-14T16:49:55;98128.06;;;23.62;54.59
68669;BME280;55652;49.454;7.798;2022-10-14T16:52:22;98120.94;;;23.61;54.95
68669;BME280;55652;49.454;7.798;2022-10-14T16:54:47;98112.22;;;23.59;55.12
68669;BME280;55652;49.454;7.798;2022-10-14T16:57:13;98119.03;;;23.61;55.15
68669;BME280;55652;49.454;7.798;2022-10-14T16:59:38;98115.78;;;23.59;55.22
68669;BME280;55652;49.454;7.798;2022-10-14T17:02:03;98123.97;;;23.59;55.16
68669;BME280;55652;49.454;7.798;2022-10-14T17:04:30;98125.34;;;23.57;55.15
68669;BME280;55652;49.454;7.798;2022-10-14T17:06:56;98120.16;;;23.55;55.11
68669;BME280;55652;49.454;7.798;2022-10-14T17:09:21;98132.16;;;23.54;55.01
68669;BME280;55652;49.454;7.798;2022-10-14T17:11:47;98123.44;;;23.52;55.11
68669;BME280;55652;49.454;7.798;2022-10-14T17:14:16;98130.81;;;23.51;54.96
68669;BME280;55652;49.454;7.798;2022-10-14T17:16:42;98132.69;;;23.51;55.10
68669;BME280;55652;49.454;7.798;2022-10-14T17:19:07;98129.44;;;23.49;54.97
68669;BME280;55652;49.454;7.798;2022-10-14T17:21:33;98121.28;;;23.49;54.88
68669;BME280;55652;49.454;7.798;2022-10-14T17:24:00;98119.34;;;23.49;54.96
68669;BME280;55652;49.454;7.798;2022-10-14T17:26:27;98117.72;;;23.48;54.95
68669;BME280;55652;49.454;7.798;2022-10-14T17:28:54;98116.88;;;23.48;54.83
68669;BME280;55652;49.454;7.798;2022-10-14T17:31:20;98107.91;;;23.47;54.75
68669;BME280;55652;49.454;7.798;2022-10-14T17:33:48;98107.09;;;23.47;54.95
68669;BME280;55652;49.454;7.798;2022-10-14T17:38:42;98111.72;;;23.46;54.64
68669;BME280;55652;49.454;7.798;2022-10-14T17:41:10;98126.19;;;23.47;54.71
68669;BME280;55652;49.454;7.798;2022-10-14T17:43:36;98118.00;;;23.47;54.80
68669;BME280;55652;49.454;7.798;2022-10-14T17:46:05;98124.56;;;23.46;54.87
68669;BME280;55652;49.454;7.798;2022-10-14T17:48:32;98121.81;;;23.46;54.71
68669;BME280;55652;49.454;7.798;2022-10-14T17:50:58;98123.44;;;23.47;54.58
68669;BME280;55652;49.454;7.798;2022-10-14T17:53:23;98128.34;;;23.45;55.04
